EDT,Max TemperatureF,Mean TemperatureF,Min TemperatureF,Max Dew PointF,MeanDew PointF,Min DewpointF,Max Humidity, Mean Humidity, Min Humidity, Max Sea Level PressureIn, Mean Sea Level PressureIn, Min Sea Level PressureIn, Max VisibilityMiles, Mean VisibilityMiles, Min VisibilityMiles, Max Wind SpeedMPH, Mean Wind SpeedMPH, Max Gust SpeedMPH,PrecipitationIn, CloudCover, Events, WindDirDegrees
2013-6-1,79,68,57,67,62,55,100,81,62,29.88,29.84,29.80,10,8,0,16,6,26,0.05,6,Fog-Rain,146
2013-6-2,81,67,53,69,61,52,100,84,67,29.78,29.70,29.61,10,7,1,22,8,28,1.53,7,Rain-Thunderstorm,169
2013-6-3,77,64,51,63,57,43,100,70,40,29.72,29.68,29.62,10,10,9,17,7,26,0.00,3,,231
2013-6-4,61,53,45,45,39,32,86,62,37,29.95,29.78,29.69,10,10,10,22,11,31,T,3,Rain,279
2013-6-5,65,54,43,36,32,26,70,47,24,30.11,30.04,29.96,10,10,10,18,10,25,0.00,1,,311
2013-6-6,69,54,38,41,35,30,86,56,26,30.21,30.16,30.11,10,10,10,14,4,20,0.00,0,,257
2013-6-7,67,59,51,53,49,43,93,71,48,30.18,30.13,30.07,10,10,10,10,4,14,0.04,7,Rain,151
2013-6-8,58,53,48,52,50,46,100,89,77,30.07,29.92,29.82,10,6,2,18,9,28,0.85,8,Rain,45
2013-6-9,57,52,47,51,47,45,100,86,72,30.14,30.05,29.97,10,8,2,9,4,15,0.02,8,Rain,16
2013-6-10,77,60,42,54,48,40,96,69,41,30.19,30.10,30.01,10,10,10,10,3,14,T,1,,234
2013-6-11,64,59,53,56,54,52,100,87,73,30.00,29.87,29.74,10,10,10,9,3,16,0.06,4,Rain,141
2013-6-12,66,58,50,56,48,36,93,67,40,29.78,29.73,29.70,10,9,2,17,8,24,0.42,5,Rain,26
2013-6-13,73,59,44,48,41,35,77,54,31,29.83,29.77,29.72,10,10,10,15,5,20,0.00,0,,18
2013-6-14,76,63,49,54,50,47,93,66,38,29.72,29.68,29.62,10,9,3,24,3,30,0.16,4,Rain-Thunderstorm,24
2013-6-15,71,61,51,50,43,38,96,64,32,29.78,29.72,29.68,10,10,10,24,9,32,T,2,,287
2013-6-16,65,53,41,50,42,33,96,64,31,29.88,29.81,29.76,10,9,4,12,4,20,0.42,5,Rain,360
2013-6-17,64,58,51,58,53,48,96,85,73,29.79,29.75,29.71,10,10,4,8,3,12,0.02,8,Rain,132
2013-6-18,67,57,46,52,46,42,93,69,44,29.95,29.88,29.81,10,10,10,14,5,21,T,5,,294
2013-6-19,70,58,45,46,44,41,93,65,37,30.09,30.00,29.95,10,10,10,14,6,21,0.00,2,,305
2013-6-20,74,59,43,48,43,40,96,64,31,30.20,30.15,30.11,10,10,10,16,5,23,0.00,2,,234
2013-6-21,76,63,49,57,46,39,77,54,31,30.19,30.14,30.11,10,10,10,17,7,25,0.02,3,Rain-Thunderstorm,268
2013-6-22,75,60,44,58,51,40,93,72,50,30.19,30.13,30.05,10,10,10,18,5,24,T,1,,243
2013-6-23,76,65,54,63,59,54,100,80,60,30.12,30.04,29.89,10,8,0,14,3,18,T,3,Fog-Rain,210
2013-6-24,82,71,60,66,63,60,100,77,54,29.89,29.82,29.73,10,6,0,15,4,21,0.01,4,Fog-Rain,239
2013-6-25,86,73,60,68,64,59,97,71,44,29.79,29.71,29.61,10,8,1,25,6,33,0.51,4,Rain-Thunderstorm,264
2013-6-26,61,57,52,58,54,47,100,86,72,29.92,29.84,29.73,10,9,2,16,8,21,0.01,8,,45
2013-6-27,56,52,48,54,49,46,100,92,83,29.99,29.92,29.86,10,6,2,10,6,14,0.78,8,Rain-Thunderstorm,93
2013-6-28,56,53,50,54,52,48,100,93,86,29.97,29.82,29.67,10,6,1,16,8,25,0.90,8,Rain,72
2013-6-29,70,63,55,67,60,54,100,95,90,29.66,29.62,29.58,10,5,0,18,5,25,0.25,7,Fog-Rain-Thunderstorm,116
2013-6-30,78,69,60,64,60,57,100,76,52,29.92,29.74,29.64,10,7,0,18,6,26,0.01,5,Fog,243